sensor_id;sensor_type;location;lat;lon;timestamp;P1;durP1;ratioP1;P2;durP2;ratioP2
75639;SDS011;64233;51.486;6.332;2023-12-20T00:01:48;12.32;;;6.53;;
75639;SDS011;64233;51.486;6.332;2023-12-20T00:04:14;13.45;;;7.10;;
75639;SDS011;64233;51.486;6.332;2023-12-20T00:06:39;11.95;;;6.43;;
75639;SDS011;64233;51.486;6.332;2023-12-20T00:09:04;14.10;;;5.45;;
75639;SDS011;64233;51.486;6.332;2023-12-20T00:11:30;11.25;;;5.85;;
75639;SDS011;64233;51.486;6.332;2023-12-20T00:13:55;8.75;;;5.13;;
75639;SDS011;64233;51.486;6.332;2023-12-20T00:16:20;12.63;;;5.95;;
75639;SDS011;64233;51.486;6.332;2023-12-20T00:18:45;11.85;;;5.60;;
75639;SDS011;64233;51.486;6.332;2023-12-20T00:21:11;9.82;;;4.72;;
75639;SDS011;64233;51.486;6.332;2023-12-20T00:23:36;12.63;;;5.45;;
75639;SDS011;64233;51.486;6.332;2023-12-20T00:26:02;10.48;;;4.95;;
75639;SDS011;64233;51.486;6.332;2023-12-20T00:28:27;8.68;;;4.50;;
75639;SDS011;64233;51.486;6.332;2023-12-20T00:30:52;12.85;;;4.68;;
75639;SDS011;64233;51.486;6.332;2023-12-20T00:33:18;9.23;;;4.30;;
75639;SDS011;64233;51.486;6.332;2023-12-20T00:35:44;15.45;;;5.60;;
75639;SDS011;64233;51.486;6.332;2023-12-20T00:38:09;7.03;;;4.43;;
75639;SDS011;64233;51.486;6.332;2023-12-20T00:40:35;12.93;;;4.43;;
75639;SDS011;64233;51.486;6.332;2023-12-20T00:43:00;10.30;;;3.78;;
75639;SDS011;64233;51.486;6.332;2023-12-20T00:45:25;10.15;;;4.72;;
75639;SDS011;64233;51.486;6.332;2023-12-20T00:47:51;9.50;;;4.35;;
75639;SDS011;64233;51.486;6.332;2023-12-20T00:50:16;7.40;;;4.05;;
75639;SDS011;64233;51.486;6.332;2023-12-20T00:52:41;12.25;;;5.00;;
75639;SDS011;64233;51.486;6.332;2023-12-20T00:55:07;13.05;;;4.85;;
75639;SDS011;64233;51.486;6.332;2023-12-20T00:57:32;8.02;;;3.40;;
75639;SDS011;64233;51.486;6.332;2023-12-20T00:59:58;8.27;;;5.53;;
75639;SDS011;64233;51.486;6.332;2023-12-20T01:02:23;9.13;;;4.03;;
75639;SDS011;64233;51.486;6.332;2023-12-20T01:04:48;13.55;;;3.85;;
75639;SDS011;64233;51.486;6.332;2023-12-20T01:07:14;9.88;;;4.30;;
75639;SDS011;64233;51.486;6.332;2023-12-20T01:09:39;12.50;;;5.72;;
75639;SDS011;64233;51.486;6.332;2023-12-20T01:12:04;10.73;;;4.10;;
75639;SDS011;64233;51.486;6.332;2023-12-20T01:14:30;10.13;;;4.25;;
75639;SDS011;64233;51.486;6.332;2023-12-20T01:16:55;10.00;;;3.80;;
75639;SDS011;64233;51.486;6.332;2023-12-20T01:19:20;15.50;;;4.75;;
75639;SDS011;64233;51.486;6.332;2023-12-20T01:21:46;7.38;;;3.83;;
75639;SDS011;64233;51.486;6.332;2023-12-20T01:24:11;8.38;;;3.92;;
75639;SDS011;64233;51.486;6.332;2023-12-20T01:26:36;9.32;;;4.57;;
75639;SDS011;64233;51.486;6.332;2023-12-20T01:29:02;6.07;;;4.00;;
75639;SDS011;64233;51.486;6.332;2023-12-20T01:31:27;7.88;;;4.15;;
75639;SDS011;64233;51.486;6.332;2023-12-20T01:33:52;10.65;;;3.97;;
75639;SDS011;64233;51.486;6.332;2023-12-20T01:36:18;6.97;;;3.28;;
75639;SDS011;64233;51.486;6.332;2023-12-20T01:38:43;9.32;;;3.72;;
75639;SDS011;64233;51.486;6.332;2023-12-20T01:41:08;9.40;;;3.58;;
75639;SDS011;64233;51.486;6.332;2023-12-20T01:43:34;10.77;;;3.40;;
75639;SDS011;64233;51.486;6.332;2023-12-20T01:45:59;7.38;;;2.90;;
75639;SDS011;64233;51.486;6.332;2023-12-20T01:48:25;7.90;;;3.30;;
75639;SDS011;64233;51.486;6.332;2023-12-20T01:50:51;7.35;;;3.72;;
75639;SDS011;64233;51.486;6.332;2023-12-20T01:53:17;13.48;;;3.30;;
75639;SDS011;64233;51.486;6.332;2023-12-20T01:55:45;8.32;;;3.42;;
75639;SDS011;64233;51.486;6.332;2023-12-20T01:58:12;8.43;;;2.83;;
75639;SDS011;64233;51.486;6.332;2023-12-20T02:00:38;7.75;;;3.35;;
75639;SDS011;64233;51.486;6.332;2023-12-20T02:03:04;5.03;;;2.33;;
75639;SDS011;64233;51.486;6.332;2023-12-20T02:05:30;10.27;;;2.55;;
75639;SDS011;64233;51.486;6.332;2023-12-20T02:07:56;3.17;;;2.38;;
75639;SDS011;64233;51.486;6.332;2023-12-20T02:10:21;10.63;;;1.98;;
75639;SDS011;64233;51.486;6.332;2023-12-20T02:12:47;12.55;;;2.97;;
75639;SDS011;64233;51.486;6.332;2023-12-20T02:15:13;8.68;;;1.65;;
75639;SDS011;64233;51.486;6.332;2023-12-20T02:17:38;12.32;;;2.40;;
75639;SDS011;64233;51.486;6.332;2023-12-20T02:20:05;6.60;;;1.13;;
75639;SDS011;64233;51.486;6.332;2023-12-20T02:22:31;3.33;;;1.73;;
75639;SDS011;64233;51.486;6.332;2023-12-20T02:24:56;6.45;;;1.35;;
75639;SDS011;64233;51.486;6.332;2023-12-20T02:27:21;6.68;;;1.85;;
75639;SDS011;64233;51.486;6.332;2023-12-20T02:29:48;7.30;;;1.88;;
75639;SDS011;64233;51.486;6.332;2023-12-20T02:32:15;2.08;;;1.40;;
75639;SDS011;64233;51.486;6.332;2023-12-20T02:34:42;2.08;;;1.23;;
75639;SDS011;64233;51.486;6.332;2023-12-20T02:37:07;6.07;;;1.50;;
75639;SDS011;64233;51.486;6.332;2023-12-20T02:39:32;1.85;;;0.90;;
75639;SDS011;64233;51.486;6.332;2023-12-20T02:41:58;2.92;;;1.10;;
75639;SDS011;64233;51.486;6.332;2023-12-20T02:44:23;3.50;;;1.63;;
75639;SDS011;64233;51.486;6.332;2023-12-20T02:46:49;2.60;;;1.92;;
75639;SDS011;64233;51.486;6.332;2023-12-20T02:49:14;2.17;;;1.20;;
75639;SDS011;64233;51.486;6.332;2023-12-20T02:51:40;5.30;;;1.75;;
75639;SDS011;64233;51.486;6.332;2023-12-20T02:54:05;2.53;;;1.35;;
75639;SDS011;64233;51.486;6.332;2023-12-20T02:56:31;4.88;;;1.42;;
75639;SDS011;64233;51.486;6.332;2023-12-20T02:58:57;6.20;;;1.55;;
75639;SDS011;64233;51.486;6.332;2023-12-20T03:01:22;5.40;;;1.40;;
75639;SDS011;64233;51.486;6.332;2023-12-20T03:03:48;9.10;;;1.88;;
75639;SDS011;64233;51.486;6.332;2023-12-20T03:06:16;4.15;;;1.73;;
75639;SDS011;64233;51.486;6.332;2023-12-20T03:08:43;6.07;;;1.48;;
75639;SDS011;64233;51.486;6.332;2023-12-20T03:11:08;4.90;;;1.95;;
75639;SDS011;64233;51.486;6.332;2023-12-20T03:13:34;3.88;;;2.08;;
75639;SDS011;64233;51.486;6.332;2023-12-20T03:15:59;4.10;;;1.30;;
75639;SDS011;64233;51.486;6.332;2023-12-20T03:18:24;6.30;;;2.45;;
75639;SDS011;64233;51.486;6.332;2023-12-20T03:20:50;1.52;;;0.90;;
75639;SDS011;64233;51.486;6.332;2023-12-20T03:23:15;3.90;;;1.38;;
75639;SDS011;64233;51.486;6.332;2023-12-20T03:25:41;4.45;;;1.35;;
75639;SDS011;64233;51.486;6.332;2023-12-20T03:28:06;3.42;;;1.27;;
75639;SDS011;64233;51.486;6.332;2023-12-20T03:30:31;1.98;;;1.25;;
75639;SDS011;64233;51.486;6.332;2023-12-20T03:32:57;1.83;;;1.08;;
75639;SDS011;64233;51.486;6.332;2023-12-20T03:35:22;6.18;;;1.40;;
75639;SDS011;64233;51.486;6.332;2023-12-20T03:37:47;4.72;;;1.30;;
75639;SDS011;64233;51.486;6.332;2023-12-20T03:40:12;6.07;;;1.20;;
75639;SDS011;64233;51.486;6.332;2023-12-20T03:42:38;1.90;;;1.35;;
75639;SDS011;64233;51.486;6.332;2023-12-20T03:45:03;2.08;;;1.45;;
75639;SDS011;64233;51.486;6.332;2023-12-20T03:47:28;7.53;;;1.27;;
75639;SDS011;64233;51.486;6.332;2023-12-20T03:49:54;5.63;;;2.38;;
75639;SDS011;64233;51.486;6.332;2023-12-20T03:52:19;1.67;;;1.02;;
75639;SDS011;64233;51.486;6.332;2023-12-20T03:54:44;5.85;;;1.65;;
75639;SDS011;64233;51.486;6.332;2023-12-20T03:57:09;11.45;;;2.63;;
75639;SDS011;64233;51.486;6.332;2023-12-20T03:59:35;4.05;;;1.17;;
75639;SDS011;64233;51.486;6.332;2023-12-20T04:02:01;3.25;;;1.33;;
75639;SDS011;64233;51.486;6.332;2023-12-20T04:04:27;1.83;;;0.88;;
75639;SDS011;64233;51.486;6.332;2023-12-20T04:06:52;7.15;;;2.13;;
75639;SDS011;64233;51.486;6.332;2023-12-20T04:09:17;2.38;;;1.35;;
75639;SDS011;64233;51.486;6.332;2023-12-20T04:11:42;3.92;;;1.75;;
75639;SDS011;64233;51.486;6.332;2023-12-20T04:14:08;5.85;;;1.90;;
75639;SDS011;64233;51.486;6.332;2023-12-20T04:16:34;5.32;;;1.70;;
75639;SDS011;64233;51.486;6.332;2023-12-20T04:18:59;3.03;;;1.35;;
75639;SDS011;64233;51.486;6.332;2023-12-20T04:21:24;5.43;;;2.28;;
75639;SDS011;64233;51.486;6.332;2023-12-20T04:23:50;3.97;;;1.15;;
75639;SDS011;64233;51.486;6.332;2023-12-20T04:26:15;4.15;;;1.13;;
75639;SDS011;64233;51.486;6.332;2023-12-20T04:28:40;9.05;;;2.05;;
75639;SDS011;64233;51.486;6.332;2023-12-20T04:31:06;3.42;;;1.33;;
75639;SDS011;64233;51.486;6.332;2023-12-20T04:33:31;1.67;;;1.15;;
75639;SDS011;64233;51.486;6.332;2023-12-20T04:35:56;2.67;;;2.00;;
75639;SDS011;64233;51.486;6.332;2023-12-20T04:38:22;6.32;;;1.63;;
75639;SDS011;64233;51.486;6.332;2023-12-20T04:40:47;13.80;;;1.85;;
75639;SDS011;64233;51.486;6.332;2023-12-20T04:43:13;3.25;;;1.60;;
75639;SDS011;64233;51.486;6.332;2023-12-20T04:45:38;10.43;;;1.83;;
75639;SDS011;64233;51.486;6.332;2023-12-20T04:48:04;12.93;;;2.88;;
75639;SDS011;64233;51.486;6.332;2023-12-20T04:50:29;9.32;;;2.90;;
75639;SDS011;64233;51.486;6.332;2023-12-20T04:52:55;6.82;;;1.95;;
75639;SDS011;64233;51.486;6.332;2023-12-20T04:55:20;6.22;;;2.03;;
75639;SDS011;64233;51.486;6.332;2023-12-20T04:57:45;2.28;;;1.35;;
75639;SDS011;64233;51.486;6.332;2023-12-20T05:00:11;5.70;;;2.30;;
75639;SDS011;64233;51.486;6.332;2023-12-20T05:02:37;2.78;;;1.55;;
75639;SDS011;64233;51.486;6.332;2023-12-20T05:05:02;5.95;;;1.17;;
75639;SDS011;64233;51.486;6.332;2023-12-20T05:07:27;6.47;;;1.83;;
75639;SDS011;64233;51.486;6.332;2023-12-20T05:09:53;11.52;;;2.80;;
75639;SDS011;64233;51.486;6.332;2023-12-20T05:12:18;4.93;;;1.52;;
75639;SDS011;64233;51.486;6.332;2023-12-20T05:14:44;6.80;;;2.03;;
75639;SDS011;64233;51.486;6.332;2023-12-20T05:17:09;4.78;;;2.30;;
75639;SDS011;64233;51.486;6.332;2023-12-20T05:19:34;9.77;;;3.03;;
75639;SDS011;64233;51.486;6.332;2023-12-20T05:22:00;11.10;;;2.38;;
75639;SDS011;64233;51.486;6.332;2023-12-20T05:24:26;4.80;;;2.00;;
75639;SDS011;64233;51.486;6.332;2023-12-20T05:26:52;7.07;;;2.13;;
75639;SDS011;64233;51.486;6.332;2023-12-20T05:29:17;6.75;;;2.65;;
75639;SDS011;64233;51.486;6.332;2023-12-20T05:31:43;5.10;;;1.95;;
75639;SDS011;64233;51.486;6.332;2023-12-20T05:34:08;4.85;;;1.08;;
75639;SDS011;64233;51.486;6.332;2023-12-20T05:36:33;4.75;;;1.92;;
75639;SDS011;64233;51.486;6.332;2023-12-20T05:38:58;6.57;;;2.15;;
75639;SDS011;64233;51.486;6.332;2023-12-20T05:41:24;4.40;;;1.52;;
75639;SDS011;64233;51.486;6.332;2023-12-20T05:43:49;6.93;;;2.97;;
75639;SDS011;64233;51.486;6.332;2023-12-20T05:46:14;5.68;;;2.30;;
75639;SDS011;64233;51.486;6.332;2023-12-20T05:48:40;5.18;;;2.60;;
75639;SDS011;64233;51.486;6.332;2023-12-20T05:51:05;3.00;;;1.52;;
75639;SDS011;64233;51.486;6.332;2023-12-20T05:53:30;12.98;;;1.70;;
75639;SDS011;64233;51.486;6.332;2023-12-20T05:55:56;7.65;;;1.48;;
75639;SDS011;64233;51.486;6.332;2023-12-20T05:58:21;7.00;;;1.88;;
75639;SDS011;64233;51.486;6.332;2023-12-20T06:00:46;9.15;;;2.25;;
75639;SDS011;64233;51.486;6.332;2023-12-20T06:03:13;4.57;;;2.38;;
75639;SDS011;64233;51.486;6.332;2023-12-20T06:05:39;3.63;;;1.58;;
75639;SDS011;64233;51.486;6.332;2023-12-20T06:08:04;6.20;;;1.52;;
75639;SDS011;64233;51.486;6.332;2023-12-20T06:10:30;9.55;;;2.35;;
75639;SDS011;64233;51.486;6.332;2023-12-20T06:12:55;4.70;;;2.08;;
75639;SDS011;64233;51.486;6.332;2023-12-20T06:15:21;3.28;;;1.52;;
75639;SDS011;64233;51.486;6.332;2023-12-20T06:17:46;10.77;;;2.35;;
75639;SDS011;64233;51.486;6.332;2023-12-20T06:20:12;3.75;;;1.80;;
75639;SDS011;64233;51.486;6.332;2023-12-20T06:22:38;4.63;;;1.88;;
75639;SDS011;64233;51.486;6.332;2023-12-20T06:25:03;6.15;;;2.90;;
75639;SDS011;64233;51.486;6.332;2023-12-20T06:27:29;3.08;;;2.03;;
75639;SDS011;64233;51.486;6.332;2023-12-20T06:29:54;3.88;;;2.20;;
75639;SDS011;64233;51.486;6.332;2023-12-20T06:32:21;9.73;;;2.83;;
75639;SDS011;64233;51.486;6.332;2023-12-20T06:34:48;15.88;;;3.08;;
75639;SDS011;64233;51.486;6.332;2023-12-20T06:37:13;9.88;;;2.60;;
75639;SDS011;64233;51.486;6.332;2023-12-20T06:39:40;3.33;;;1.85;;
75639;SDS011;64233;51.486;6.332;2023-12-20T06:42:05;10.98;;;2.78;;
75639;SDS011;64233;51.486;6.332;2023-12-20T06:44:30;15.63;;;3.20;;
75639;SDS011;64233;51.486;6.332;2023-12-20T06:46:56;13.90;;;3.08;;
75639;SDS011;64233;51.486;6.332;2023-12-20T06:49:22;4.55;;;1.15;;
75639;SDS011;64233;51.486;6.332;2023-12-20T06:51:47;7.47;;;1.90;;
75639;SDS011;64233;51.486;6.332;2023-12-20T06:54:12;7.53;;;2.45;;
75639;SDS011;64233;51.486;6.332;2023-12-20T06:56:38;7.00;;;2.17;;
75639;SDS011;64233;51.486;6.332;2023-12-20T06:59:03;2.58;;;1.50;;
75639;SDS011;64233;51.486;6.332;2023-12-20T07:01:28;25.63;;;2.95;;
75639;SDS011;64233;51.486;6.332;2023-12-20T07:03:53;8.52;;;1.85;;
75639;SDS011;64233;51.486;6.332;2023-12-20T07:06:19;14.10;;;2.38;;
75639;SDS011;64233;51.486;6.332;2023-12-20T07:08:45;12.35;;;2.55;;
75639;SDS011;64233;51.486;6.332;2023-12-20T07:11:10;2.22;;;1.80;;
75639;SDS011;64233;51.486;6.332;2023-12-20T07:13:36;7.38;;;2.55;;
75639;SDS011;64233;51.486;6.332;2023-12-20T07:16:01;2.72;;;1.35;;
75639;SDS011;64233;51.486;6.332;2023-12-20T07:18:26;14.55;;;3.17;;
75639;SDS011;64233;51.486;6.332;2023-12-20T07:20:52;9.40;;;2.30;;
75639;SDS011;64233;51.486;6.332;2023-12-20T07:23:17;3.08;;;1.52;;
75639;SDS011;64233;51.486;6.332;2023-12-20T07:25:44;8.55;;;2.28;;
75639;SDS011;64233;51.486;6.332;2023-12-20T07:28:10;2.28;;;1.00;;
75639;SDS011;64233;51.486;6.332;2023-12-20T07:30:35;3.30;;;1.45;;
75639;SDS011;64233;51.486;6.332;2023-12-20T07:33:00;8.40;;;2.60;;
75639;SDS011;64233;51.486;6.332;2023-12-20T07:35:27;11.98;;;1.38;;
75639;SDS011;64233;51.486;6.332;2023-12-20T07:37:52;1.52;;;1.23;;
75639;SDS011;64233;51.486;6.332;2023-12-20T07:40:18;5.57;;;2.70;;
75639;SDS011;64233;51.486;6.332;2023-12-20T07:42:43;4.43;;;1.38;;
75639;SDS011;64233;51.486;6.332;2023-12-20T07:45:08;5.43;;;1.23;;
75639;SDS011;64233;51.486;6.332;2023-12-20T07:47:38;0.82;;;0.70;;
75639;SDS011;64233;51.486;6.332;2023-12-20T07:50:04;7.60;;;2.03;;
75639;SDS011;64233;51.486;6.332;2023-12-20T07:52:29;4.95;;;2.40;;
75639;SDS011;64233;51.486;6.332;2023-12-20T07:54:55;1.45;;;1.15;;
75639;SDS011;64233;51.486;6.332;2023-12-20T07:57:21;0.55;;;0.50;;
75639;SDS011;64233;51.486;6.332;2023-12-20T07:59:46;12.48;;;2.85;;
75639;SDS011;64233;51.486;6.332;2023-12-20T08:02:12;12.70;;;2.70;;
75639;SDS011;64233;51.486;6.332;2023-12-20T08:04:37;2.60;;;1.67;;
75639;SDS011;64233;51.486;6.332;2023-12-20T08:07:03;3.42;;;0.85;;
75639;SDS011;64233;51.486;6.332;2023-12-20T08:09:29;18.63;;;2.40;;
75639;SDS011;64233;51.486;6.332;2023-12-20T08:11:54;3.30;;;1.25;;
75639;SDS011;64233;51.486;6.332;2023-12-20T08:14:20;3.83;;;1.30;;
75639;SDS011;64233;51.486;6.332;2023-12-20T08:16:45;6.80;;;1.55;;
75639;SDS011;64233;51.486;6.332;2023-12-20T08:19:10;1.15;;;1.02;;
75639;SDS011;64233;51.486;6.332;2023-12-20T08:21:36;5.32;;;2.42;;
75639;SDS011;64233;51.486;6.332;2023-12-20T08:24:01;1.42;;;0.93;;
75639;SDS011;64233;51.486;6.332;2023-12-20T08:26:26;7.25;;;1.98;;
75639;SDS011;64233;51.486;6.332;2023-12-20T08:28:52;10.25;;;2.15;;
75639;SDS011;64233;51.486;6.332;2023-12-20T08:31:18;6.68;;;1.92;;
75639;SDS011;64233;51.486;6.332;2023-12-20T08:33:44;1.48;;;1.05;;
75639;SDS011;64233;51.486;6.332;2023-12-20T08:36:10;2.08;;;0.93;;
75639;SDS011;64233;51.486;6.332;2023-12-20T08:38:35;5.32;;;1.25;;
75639;SDS011;64233;51.486;6.332;2023-12-20T08:41:01;2.25;;;0.85;;
75639;SDS011;64233;51.486;6.332;2023-12-20T08:43:27;2.10;;;1.25;;
75639;SDS011;64233;51.486;6.332;2023-12-20T08:45:53;4.32;;;1.40;;
75639;SDS011;64233;51.486;6.332;2023-12-20T08:48:18;6.70;;;1.48;;
75639;SDS011;64233;51.486;6.332;2023-12-20T08:50:43;4.28;;;1.10;;
75639;SDS011;64233;51.486;6.332;2023-12-20T08:53:09;4.75;;;1.10;;
75639;SDS011;64233;51.486;6.332;2023-12-20T08:55:34;2.25;;;1.08;;
75639;SDS011;64233;51.486;6.332;2023-12-20T08:57:59;2.00;;;1.58;;
75639;SDS011;64233;51.486;6.332;2023-12-20T09:00:24;4.63;;;2.10;;
75639;SDS011;64233;51.486;6.332;2023-12-20T09:02:52;4.38;;;2.28;;
75639;SDS011;64233;51.486;6.332;2023-12-20T09:05:18;3.53;;;1.27;;
75639;SDS011;64233;51.486;6.332;2023-12-20T09:07:43;1.85;;;1.17;;
75639;SDS011;64233;51.486;6.332;2023-12-20T09:10:08;11.75;;;1.80;;
75639;SDS011;64233;51.486;6.332;2023-12-20T09:12:34;4.53;;;1.42;;
75639;SDS011;64233;51.486;6.332;2023-12-20T09:14:59;4.95;;;2.67;;
75639;SDS011;64233;51.486;6.332;2023-12-20T09:17:27;5.13;;;1.50;;
75639;SDS011;64233;51.486;6.332;2023-12-20T09:19:52;0.77;;;0.75;;
75639;SDS011;64233;51.486;6.332;2023-12-20T09:22:19;5.05;;;1.15;;
75639;SDS011;64233;51.486;6.332;2023-12-20T09:24:44;1.27;;;0.52;;
75639;SDS011;64233;51.486;6.332;2023-12-20T09:27:09;1.90;;;1.02;;
75639;SDS011;64233;51.486;6.332;2023-12-20T09:29:35;4.50;;;1.77;;
75639;SDS011;64233;51.486;6.332;2023-12-20T09:32:00;7.32;;;1.45;;
75639;SDS011;64233;51.486;6.332;2023-12-20T09:34:25;6.38;;;1.27;;
75639;SDS011;64233;51.486;6.332;2023-12-20T09:36:52;5.10;;;1.77;;
75639;SDS011;64233;51.486;6.332;2023-12-20T09:39:17;4.68;;;1.60;;
75639;SDS011;64233;51.486;6.332;2023-12-20T09:42:03;1.52;;;1.05;;
75639;SDS011;64233;51.486;6.332;2023-12-20T09:44:29;4.50;;;1.85;;
75639;SDS011;64233;51.486;6.332;2023-12-20T09:46:55;10.43;;;3.22;;
75639;SDS011;64233;51.486;6.332;2023-12-20T09:49:22;2.00;;;1.38;;
75639;SDS011;64233;51.486;6.332;2023-12-20T09:51:49;3.92;;;1.45;;
75639;SDS011;64233;51.486;6.332;2023-12-20T09:54:19;4.28;;;1.88;;
75639;SDS011;64233;51.486;6.332;2023-12-20T09:56:46;5.88;;;1.80;;
75639;SDS011;64233;51.486;6.332;2023-12-20T09:59:12;6.57;;;2.10;;
75639;SDS011;64233;51.486;6.332;2023-12-20T10:01:41;4.38;;;1.25;;
75639;SDS011;64233;51.486;6.332;2023-12-20T10:04:08;2.63;;;1.33;;
75639;SDS011;64233;51.486;6.332;2023-12-20T10:06:35;0.98;;;0.95;;
75639;SDS011;64233;51.486;6.332;2023-12-20T10:09:01;6.38;;;1.05;;
75639;SDS011;64233;51.486;6.332;2023-12-20T10:11:26;1.00;;;0.65;;
75639;SDS011;64233;51.486;6.332;2023-12-20T10:13:53;7.55;;;1.45;;
75639;SDS011;64233;51.486;6.332;2023-12-20T10:16:24;1.50;;;0.82;;
75639;SDS011;64233;51.486;6.332;2023-12-20T10:18:50;2.05;;;1.05;;
75639;SDS011;64233;51.486;6.332;2023-12-20T10:21:20;8.18;;;1.70;;
75639;SDS011;64233;51.486;6.332;2023-12-20T10:23:46;0.73;;;0.73;;
75639;SDS011;64233;51.486;6.332;2023-12-20T10:26:23;2.00;;;1.00;;
75639;SDS011;64233;51.486;6.332;2023-12-20T10:28:53;9.65;;;2.92;;
75639;SDS011;64233;51.486;6.332;2023-12-20T10:31:52;5.45;;;1.77;;
75639;SDS011;64233;51.486;6.332;2023-12-20T10:34:11;1.92;;;0.82;;
75639;SDS011;64233;51.486;6.332;2023-12-20T10:36:36;7.05;;;2.33;;
75639;SDS011;64233;51.486;6.332;2023-12-20T10:39:01;8.82;;;2.05;;
75639;SDS011;64233;51.486;6.332;2023-12-20T10:41:28;5.57;;;0.85;;
75639;SDS011;64233;51.486;6.332;2023-12-20T10:44:01;7.90;;;2.65;;
75639;SDS011;64233;51.486;6.332;2023-12-20T10:46:28;8.50;;;2.00;;
75639;SDS011;64233;51.486;6.332;2023-12-20T10:48:54;11.00;;;2.03;;
75639;SDS011;64233;51.486;6.332;2023-12-20T10:51:20;8.52;;;2.30;;
75639;SDS011;64233;51.486;6.332;2023-12-20T10:53:47;6.22;;;2.38;;
75639;SDS011;64233;51.486;6.332;2023-12-20T10:56:15;3.30;;;1.48;;
75639;SDS011;64233;51.486;6.332;2023-12-20T10:58:43;8.85;;;2.60;;
75639;SDS011;64233;51.486;6.332;2023-12-20T11:01:08;4.57;;;2.30;;
75639;SDS011;64233;51.486;6.332;2023-12-20T11:03:35;11.18;;;2.47;;
75639;SDS011;64233;51.486;6.332;2023-12-20T11:06:04;10.32;;;2.88;;
75639;SDS011;64233;51.486;6.332;2023-12-20T11:08:39;9.80;;;2.63;;
75639;SDS011;64233;51.486;6.332;2023-12-20T11:11:13;12.32;;;3.15;;
75639;SDS011;64233;51.486;6.332;2023-12-20T11:13:53;8.02;;;2.70;;
75639;SDS011;64233;51.486;6.332;2023-12-20T11:16:22;0.57;;;0.50;;
75639;SDS011;64233;51.486;6.332;2023-12-20T11:18:47;4.32;;;3.05;;
75639;SDS011;64233;51.486;6.332;2023-12-20T11:21:15;8.13;;;2.65;;
75639;SDS011;64233;51.486;6.332;2023-12-20T11:23:41;4.07;;;2.00;;
75639;SDS011;64233;51.486;6.332;2023-12-20T11:26:07;4.55;;;2.17;;
75639;SDS011;64233;51.486;6.332;2023-12-20T11:28:33;1.52;;;1.25;;
75639;SDS011;64233;51.486;6.332;2023-12-20T11:30:58;5.85;;;2.38;;
75639;SDS011;64233;51.486;6.332;2023-12-20T11:33:27;8.82;;;2.63;;
75639;SDS011;64233;51.486;6.332;2023-12-20T11:35:55;9.27;;;2.92;;
75639;SDS011;64233;51.486;6.332;2023-12-20T11:38:22;6.40;;;3.10;;
75639;SDS011;64233;51.486;6.332;2023-12-20T11:40:48;13.50;;;3.70;;
75639;SDS011;64233;51.486;6.332;2023-12-20T11:46:04;2.45;;;1.50;;
75639;SDS011;64233;51.486;6.332;2023-12-20T11:48:30;9.82;;;2.92;;
75639;SDS011;64233;51.486;6.332;2023-12-20T11:50:56;11.93;;;2.55;;
75639;SDS011;64233;51.486;6.332;2023-12-20T11:53:22;7.38;;;3.15;;
75639;SDS011;64233;51.486;6.332;2023-12-20T11:55:48;4.75;;;3.45;;
75639;SDS011;64233;51.486;6.332;2023-12-20T11:58:14;2.83;;;2.60;;
75639;SDS011;64233;51.486;6.332;2023-12-20T12:00:41;11.50;;;2.20;;
75639;SDS011;64233;51.486;6.332;2023-12-20T12:03:07;11.77;;;2.65;;
75639;SDS011;64233;51.486;6.332;2023-12-20T12:05:32;14.95;;;2.65;;
75639;SDS011;64233;51.486;6.332;2023-12-20T12:07:58;2.65;;;1.52;;
75639;SDS011;64233;51.486;6.332;2023-12-20T12:10:23;4.82;;;2.78;;
75639;SDS011;64233;51.486;6.332;2023-12-20T12:12:48;9.00;;;3.00;;
75639;SDS011;64233;51.486;6.332;2023-12-20T12:15:14;5.55;;;2.30;;
75639;SDS011;64233;51.486;6.332;2023-12-20T12:17:39;11.18;;;1.75;;
75639;SDS011;64233;51.486;6.332;2023-12-20T12:20:05;7.32;;;2.95;;
75639;SDS011;64233;51.486;6.332;2023-12-20T12:22:31;10.15;;;1.90;;
75639;SDS011;64233;51.486;6.332;2023-12-20T12:24:58;8.27;;;2.15;;
75639;SDS011;64233;51.486;6.332;2023-12-20T12:27:33;4.22;;;2.40;;
75639;SDS011;64233;51.486;6.332;2023-12-20T12:30:03;0.88;;;0.80;;
75639;SDS011;64233;51.486;6.332;2023-12-20T12:32:32;7.43;;;2.53;;
75639;SDS011;64233;51.486;6.332;2023-12-20T12:34:57;6.93;;;1.88;;
75639;SDS011;64233;51.486;6.332;2023-12-20T12:37:22;1.92;;;1.10;;
75639;SDS011;64233;51.486;6.332;2023-12-20T12:39:49;5.57;;;1.80;;
75639;SDS011;64233;51.486;6.332;2023-12-20T12:42:14;4.25;;;1.65;;
75639;SDS011;64233;51.486;6.332;2023-12-20T12:44:40;7.13;;;2.20;;
75639;SDS011;64233;51.486;6.332;2023-12-20T12:47:05;3.80;;;2.53;;
75639;SDS011;64233;51.486;6.332;2023-12-20T12:49:31;5.05;;;1.88;;
75639;SDS011;64233;51.486;6.332;2023-12-20T12:51:57;10.63;;;3.00;;
75639;SDS011;64233;51.486;6.332;2023-12-20T12:54:23;9.68;;;3.60;;
75639;SDS011;64233;51.486;6.332;2023-12-20T12:56:48;9.95;;;2.72;;
75639;SDS011;64233;51.486;6.332;2023-12-20T12:59:15;3.80;;;2.72;;
75639;SDS011;64233;51.486;6.332;2023-12-20T13:01:41;9.57;;;2.65;;
75639;SDS011;64233;51.486;6.332;2023-12-20T13:04:06;8.38;;;3.20;;
75639;SDS011;64233;51.486;6.332;2023-12-20T13:06:35;11.20;;;1.92;;
75639;SDS011;64233;51.486;6.332;2023-12-20T13:09:03;7.03;;;2.00;;
75639;SDS011;64233;51.486;6.332;2023-12-20T13:11:29;3.22;;;2.30;;
75639;SDS011;64233;51.486;6.332;2023-12-20T13:13:56;3.75;;;2.28;;
75639;SDS011;64233;51.486;6.332;2023-12-20T13:16:22;2.22;;;1.92;;
75639;SDS011;64233;51.486;6.332;2023-12-20T13:18:49;0.65;;;0.60;;
75639;SDS011;64233;51.486;6.332;2023-12-20T13:21:14;3.88;;;2.67;;
75639;SDS011;64233;51.486;6.332;2023-12-20T13:23:40;10.32;;;2.85;;
75639;SDS011;64233;51.486;6.332;2023-12-20T13:26:05;5.82;;;2.35;;
75639;SDS011;64233;51.486;6.332;2023-12-20T13:28:30;7.95;;;2.80;;
75639;SDS011;64233;51.486;6.332;2023-12-20T13:30:56;2.97;;;1.40;;
75639;SDS011;64233;51.486;6.332;2023-12-20T13:33:21;8.20;;;3.30;;
75639;SDS011;64233;51.486;6.332;2023-12-20T13:35:46;6.97;;;2.88;;
75639;SDS011;64233;51.486;6.332;2023-12-20T13:38:12;10.02;;;2.22;;
75639;SDS011;64233;51.486;6.332;2023-12-20T13:40:38;14.27;;;4.85;;
75639;SDS011;64233;51.486;6.332;2023-12-20T13:43:03;7.45;;;2.75;;
75639;SDS011;64233;51.486;6.332;2023-12-20T13:45:29;9.60;;;4.10;;
75639;SDS011;64233;51.486;6.332;2023-12-20T13:47:54;6.18;;;1.95;;
75639;SDS011;64233;51.486;6.332;2023-12-20T13:50:19;3.67;;;1.92;;
75639;SDS011;64233;51.486;6.332;2023-12-20T13:52:45;15.57;;;3.47;;
75639;SDS011;64233;51.486;6.332;2023-12-20T13:55:11;4.22;;;3.28;;
75639;SDS011;64233;51.486;6.332;2023-12-20T13:57:36;8.60;;;2.88;;
75639;SDS011;64233;51.486;6.332;2023-12-20T14:00:06;4.75;;;1.98;;
75639;SDS011;64233;51.486;6.332;2023-12-20T14:02:39;7.38;;;2.83;;
75639;SDS011;64233;51.486;6.332;2023-12-20T14:05:04;5.38;;;2.15;;
75639;SDS011;64233;51.486;6.332;2023-12-20T14:07:31;2.70;;;1.25;;
75639;SDS011;64233;51.486;6.332;2023-12-20T14:09:56;9.75;;;2.35;;
75639;SDS011;64233;51.486;6.332;2023-12-20T14:12:21;9.65;;;1.80;;
75639;SDS011;64233;51.486;6.332;2023-12-20T14:14:47;7.45;;;2.45;;
75639;SDS011;64233;51.486;6.332;2023-12-20T14:17:12;5.00;;;1.75;;
75639;SDS011;64233;51.486;6.332;2023-12-20T14:19:37;8.07;;;2.90;;
75639;SDS011;64233;51.486;6.332;2023-12-20T14:22:04;4.35;;;2.42;;
75639;SDS011;64233;51.486;6.332;2023-12-20T14:24:29;5.13;;;2.70;;
75639;SDS011;64233;51.486;6.332;2023-12-20T14:26:55;7.85;;;3.80;;
75639;SDS011;64233;51.486;6.332;2023-12-20T14:29:20;8.75;;;2.42;;
75639;SDS011;64233;51.486;6.332;2023-12-20T14:31:45;5.88;;;2.03;;
75639;SDS011;64233;51.486;6.332;2023-12-20T14:34:11;3.88;;;2.45;;
75639;SDS011;64233;51.486;6.332;2023-12-20T14:36:36;8.68;;;2.60;;
75639;SDS011;64233;51.486;6.332;2023-12-20T14:39:02;8.43;;;2.30;;
75639;SDS011;64233;51.486;6.332;2023-12-20T14:41:29;5.63;;;4.07;;